sensor_id;sensor_type;location;lat;lon;timestamp;temperature;humidity
76787;DHT22;65739;51.482;5.702;2023-04-01T00:01:30;9.80;99.90
76787;DHT22;65739;51.482;5.702;2023-04-01T00:03:56;9.70;99.90
76787;DHT22;65739;51.482;5.702;2023-04-01T00:06:22;9.80;99.90
76787;DHT22;65739;51.482;5.702;2023-04-01T00:08:48;9.70;99.90
76787;DHT22;65739;51.482;5.702;2023-04-01T00:11:14;9.70;99.90
76787;DHT22;65739;51.482;5.702;2023-04-01T00:13:40;9.70;99.90
76787;DHT22;65739;51.482;5.702;2023-04-01T00:16:07;9.70;99.90
76787;DHT22;65739;51.482;5.702;2023-04-01T00:18:33;9.70;99.90
76787;DHT22;65739;51.482;5.702;2023-04-01T00:20:58;9.70;99.90
76787;DHT22;65739;51.482;5.702;2023-04-01T00:23:24;9.70;99.90
76787;DHT22;65739;51.482;5.702;2023-04-01T00:25:50;9.60;99.90
76787;DHT22;65739;51.482;5.702;2023-04-01T00:28:16;9.70;99.90
76787;DHT22;65739;51.482;5.702;2023-04-01T00:30:42;9.70;99.90
76787;DHT22;65739;51.482;5.702;2023-04-01T00:33:08;9.70;99.90
76787;DHT22;65739;51.482;5.702;2023-04-01T00:35:33;9.70;99.90
76787;DHT22;65739;51.482;5.702;2023-04-01T00:37:59;9.70;99.90
76787;DHT22;65739;51.482;5.702;2023-04-01T00:40:32;9.70;99.90
76787;DHT22;65739;51.482;5.702;2023-04-01T00:42:59;9.60;99.90
76787;DHT22;65739;51.482;5.702;2023-04-01T00:45:31;9.70;99.90
76787;DHT22;65739;51.482;5.702;2023-04-01T00:48:02;9.70;99.90
76787;DHT22;65739;51.482;5.702;2023-04-01T00:50:31;9.70;99.90
76787;DHT22;65739;51.482;5.702;2023-04-01T00:52:58;9.70;99.90
76787;DHT22;65739;51.482;5.702;2023-04-01T00:55:28;9.70;99.90
76787;DHT22;65739;51.482;5.702;2023-04-01T00:57:56;9.70;99.90
76787;DHT22;65739;51.482;5.702;2023-04-01T01:00:23;9.70;99.90
76787;DHT22;65739;51.482;5.702;2023-04-01T01:02:50;9.70;99.90
76787;DHT22;65739;51.482;5.702;2023-04-01T01:05:17;9.70;99.90
76787;DHT22;65739;51.482;5.702;2023-04-01T01:08:25;9.70;99.90
76787;DHT22;65739;51.482;5.702;2023-04-01T01:10:53;9.70;99.90
76787;DHT22;65739;51.482;5.702;2023-04-01T01:13:30;9.70;99.90
76787;DHT22;65739;51.482;5.702;2023-04-01T01:16:13;9.70;99.90
76787;DHT22;65739;51.482;5.702;2023-04-01T01:21:28;9.60;99.90
76787;DHT22;65739;51.482;5.702;2023-04-01T01:24:08;9.60;99.90
76787;DHT22;65739;51.482;5.702;2023-04-01T01:26:58;9.60;99.90
76787;DHT22;65739;51.482;5.702;2023-04-01T01:35:14;9.60;99.90
76787;DHT22;65739;51.482;5.702;2023-04-01T01:37:43;9.60;99.90
76787;DHT22;65739;51.482;5.702;2023-04-01T01:40:11;9.60;99.90
76787;DHT22;65739;51.482;5.702;2023-04-01T01:42:42;9.60;99.90
76787;DHT22;65739;51.482;5.702;2023-04-01T01:45:10;9.60;99.90
76787;DHT22;65739;51.482;5.702;2023-04-01T01:47:36;9.60;99.90
76787;DHT22;65739;51.482;5.702;2023-04-01T01:50:04;9.60;99.90
76787;DHT22;65739;51.482;5.702;2023-04-01T01:52:30;9.60;99.90
76787;DHT22;65739;51.482;5.702;2023-04-01T01:54:57;9.60;99.90
76787;DHT22;65739;51.482;5.702;2023-04-01T01:57:27;9.60;99.90
76787;DHT22;65739;51.482;5.702;2023-04-01T01:59:56;9.60;99.90
76787;DHT22;65739;51.482;5.702;2023-04-01T02:02:24;9.60;99.90
76787;DHT22;65739;51.482;5.702;2023-04-01T02:04:51;9.80;99.90
76787;DHT22;65739;51.482;5.702;2023-04-01T02:07:23;9.60;99.90
76787;DHT22;65739;51.482;5.702;2023-04-01T02:09:51;9.60;99.90
76787;DHT22;65739;51.482;5.702;2023-04-01T02:12:19;9.60;99.90
76787;DHT22;65739;51.482;5.702;2023-04-01T02:15:06;9.60;99.90
76787;DHT22;65739;51.482;5.702;2023-04-01T02:17:34;9.60;99.90
76787;DHT22;65739;51.482;5.702;2023-04-01T02:20:14;9.60;99.90
76787;DHT22;65739;51.482;5.702;2023-04-01T02:22:44;9.60;99.90
76787;DHT22;65739;51.482;5.702;2023-04-01T02:25:18;9.60;99.90
76787;DHT22;65739;51.482;5.702;2023-04-01T02:27:45;9.60;99.90
76787;DHT22;65739;51.482;5.702;2023-04-01T02:30:13;9.60;99.90
76787;DHT22;65739;51.482;5.702;2023-04-01T02:32:39;9.60;99.90
76787;DHT22;65739;51.482;5.702;2023-04-01T02:35:08;9.50;99.90
76787;DHT22;65739;51.482;5.702;2023-04-01T02:37:36;9.50;99.90
76787;DHT22;65739;51.482;5.702;2023-04-01T02:40:06;9.50;99.90
76787;DHT22;65739;51.482;5.702;2023-04-01T02:42:33;9.60;99.90
76787;DHT22;65739;51.482;5.702;2023-04-01T02:44:59;9.50;99.90
76787;DHT22;65739;51.482;5.702;2023-04-01T02:47:25;9.60;99.90
76787;DHT22;65739;51.482;5.702;2023-04-01T02:49:50;9.50;99.90
76787;DHT22;65739;51.482;5.702;2023-04-01T02:52:16;9.50;99.90
76787;DHT22;65739;51.482;5.702;2023-04-01T02:54:41;9.50;99.90
76787;DHT22;65739;51.482;5.702;2023-04-01T02:57:07;9.50;99.90
76787;DHT22;65739;51.482;5.702;2023-04-01T02:59:32;9.50;99.90
76787;DHT22;65739;51.482;5.702;2023-04-01T03:01:58;9.50;99.90
76787;DHT22;65739;51.482;5.702;2023-04-01T03:04:24;9.50;99.90
76787;DHT22;65739;51.482;5.702;2023-04-01T03:06:49;9.50;99.90
76787;DHT22;65739;51.482;5.702;2023-04-01T03:09:15;9.50;99.90
76787;DHT22;65739;51.482;5.702;2023-04-01T03:11:41;9.50;99.90
76787;DHT22;65739;51.482;5.702;2023-04-01T03:14:06;9.50;99.90
76787;DHT22;65739;51.482;5.702;2023-04-01T03:16:32;9.50;99.90
76787;DHT22;65739;51.482;5.702;2023-04-01T03:18:58;9.50;99.90
76787;DHT22;65739;51.482;5.702;2023-04-01T03:21:25;9.60;99.90
76787;DHT22;65739;51.482;5.702;2023-04-01T03:23:51;9.50;99.90
76787;DHT22;65739;51.482;5.702;2023-04-01T03:26:17;9.50;99.90
76787;DHT22;65739;51.482;5.702;2023-04-01T03:28:43;9.50;99.90
76787;DHT22;65739;51.482;5.702;2023-04-01T03:31:09;9.50;99.90
76787;DHT22;65739;51.482;5.702;2023-04-01T03:33:36;9.50;99.90
76787;DHT22;65739;51.482;5.702;2023-04-01T03:36:02;9.50;99.90
76787;DHT22;65739;51.482;5.702;2023-04-01T03:38:32;9.50;99.90
76787;DHT22;65739;51.482;5.702;2023-04-01T03:40:58;9.50;99.90
76787;DHT22;65739;51.482;5.702;2023-04-01T03:43:23;9.50;99.90
76787;DHT22;65739;51.482;5.702;2023-04-01T03:45:50;9.50;99.90
76787;DHT22;65739;51.482;5.702;2023-04-01T03:48:16;9.50;99.90
76787;DHT22;65739;51.482;5.702;2023-04-01T03:50:42;9.50;99.90
76787;DHT22;65739;51.482;5.702;2023-04-01T03:53:08;9.50;99.90
76787;DHT22;65739;51.482;5.702;2023-04-01T03:55:35;9.50;99.90
76787;DHT22;65739;51.482;5.702;2023-04-01T03:58:00;9.40;99.90
76787;DHT22;65739;51.482;5.702;2023-04-01T04:00:30;9.40;99.90
76787;DHT22;65739;51.482;5.702;2023-04-01T04:02:56;9.40;99.90
76787;DHT22;65739;51.482;5.702;2023-04-01T04:05:23;9.40;99.90
76787;DHT22;65739;51.482;5.702;2023-04-01T04:07:49;9.40;99.90
76787;DHT22;65739;51.482;5.702;2023-04-01T04:10:15;9.40;99.90
76787;DHT22;65739;51.482;5.702;2023-04-01T04:12:40;9.40;99.90
76787;DHT22;65739;51.482;5.702;2023-04-01T04:15:07;9.40;99.90
76787;DHT22;65739;51.482;5.702;2023-04-01T04:17:32;9.40;99.90
76787;DHT22;65739;51.482;5.702;2023-04-01T04:19:58;9.40;99.90
76787;DHT22;65739;51.482;5.702;2023-04-01T04:22:23;9.40;99.90
76787;DHT22;65739;51.482;5.702;2023-04-01T04:24:49;9.40;99.90
76787;DHT22;65739;51.482;5.702;2023-04-01T04:27:15;9.40;99.90
76787;DHT22;65739;51.482;5.702;2023-04-01T04:29:40;9.40;99.90
76787;DHT22;65739;51.482;5.702;2023-04-01T04:32:06;9.40;99.90
76787;DHT22;65739;51.482;5.702;2023-04-01T04:34:32;9.40;99.90
76787;DHT22;65739;51.482;5.702;2023-04-01T04:36:58;9.40;99.90
76787;DHT22;65739;51.482;5.702;2023-04-01T04:39:23;9.40;99.90
76787;DHT22;65739;51.482;5.702;2023-04-01T04:41:49;9.30;99.90
76787;DHT22;65739;51.482;5.702;2023-04-01T04:44:14;9.40;99.90
76787;DHT22;65739;51.482;5.702;2023-04-01T04:46:40;9.30;99.90
76787;DHT22;65739;51.482;5.702;2023-04-01T04:49:06;9.30;99.90
76787;DHT22;65739;51.482;5.702;2023-04-01T04:51:32;9.30;99.90
76787;DHT22;65739;51.482;5.702;2023-04-01T04:54:00;9.30;99.90
76787;DHT22;65739;51.482;5.702;2023-04-01T04:56:25;9.30;99.90
76787;DHT22;65739;51.482;5.702;2023-04-01T04:58:51;9.30;99.90
76787;DHT22;65739;51.482;5.702;2023-04-01T05:01:18;9.30;99.90
76787;DHT22;65739;51.482;5.702;2023-04-01T05:03:44;9.20;99.90
76787;DHT22;65739;51.482;5.702;2023-04-01T05:06:12;9.20;99.90
76787;DHT22;65739;51.482;5.702;2023-04-01T05:08:39;9.20;99.90
76787;DHT22;65739;51.482;5.702;2023-04-01T05:11:07;9.20;99.90
76787;DHT22;65739;51.482;5.702;2023-04-01T05:13:35;9.20;99.90
76787;DHT22;65739;51.482;5.702;2023-04-01T05:16:01;9.20;99.90
76787;DHT22;65739;51.482;5.702;2023-04-01T05:18:26;9.20;99.90
76787;DHT22;65739;51.482;5.702;2023-04-01T05:20:53;9.20;99.90
76787;DHT22;65739;51.482;5.702;2023-04-01T05:23:20;9.20;99.90
76787;DHT22;65739;51.482;5.702;2023-04-01T05:25:49;9.20;99.90
76787;DHT22;65739;51.482;5.702;2023-04-01T05:28:16;9.20;99.90
76787;DHT22;65739;51.482;5.702;2023-04-01T05:30:43;9.20;99.90
76787;DHT22;65739;51.482;5.702;2023-04-01T05:33:09;9.20;99.90
76787;DHT22;65739;51.482;5.702;2023-04-01T05:35:35;9.20;99.90
76787;DHT22;65739;51.482;5.702;2023-04-01T05:38:01;9.20;99.90
76787;DHT22;65739;51.482;5.702;2023-04-01T05:40:28;9.10;99.90
76787;DHT22;65739;51.482;5.702;2023-04-01T05:42:53;9.20;99.90
76787;DHT22;65739;51.482;5.702;2023-04-01T05:45:19;9.20;99.90
76787;DHT22;65739;51.482;5.702;2023-04-01T05:47:44;9.20;99.90
76787;DHT22;65739;51.482;5.702;2023-04-01T05:50:10;9.20;99.90
76787;DHT22;65739;51.482;5.702;2023-04-01T05:52:36;9.20;99.90
76787;DHT22;65739;51.482;5.702;2023-04-01T05:55:02;9.20;99.90
76787;DHT22;65739;51.482;5.702;2023-04-01T05:57:28;9.20;99.90
76787;DHT22;65739;51.482;5.702;2023-04-01T05:59:53;9.20;99.90
76787;DHT22;65739;51.482;5.702;2023-04-01T06:02:19;9.20;99.90
76787;DHT22;65739;51.482;5.702;2023-04-01T06:04:45;9.20;99.90
76787;DHT22;65739;51.482;5.702;2023-04-01T06:07:15;9.20;99.90
76787;DHT22;65739;51.482;5.702;2023-04-01T06:09:42;9.20;99.90
76787;DHT22;65739;51.482;5.702;2023-04-01T06:15:04;9.20;99.90
76787;DHT22;65739;51.482;5.702;2023-04-01T06:17:42;9.20;99.90
76787;DHT22;65739;51.482;5.702;2023-04-01T06:31:18;9.20;99.90
76787;DHT22;65739;51.482;5.702;2023-04-01T06:34:31;9.20;99.90
76787;DHT22;65739;51.482;5.702;2023-04-01T06:37:20;9.30;99.90
76787;DHT22;65739;51.482;5.702;2023-04-01T06:50:37;9.30;99.90
76787;DHT22;65739;51.482;5.702;2023-04-01T06:53:11;9.30;99.90
76787;DHT22;65739;51.482;5.702;2023-04-01T06:55:55;9.40;99.90
76787;DHT22;65739;51.482;5.702;2023-04-01T06:58:31;9.40;99.90
76787;DHT22;65739;51.482;5.702;2023-04-01T07:01:02;9.30;99.90
76787;DHT22;65739;51.482;5.702;2023-04-01T07:03:52;9.40;99.90
76787;DHT22;65739;51.482;5.702;2023-04-01T07:06:25;9.40;99.90
76787;DHT22;65739;51.482;5.702;2023-04-01T07:08:54;9.40;99.90
76787;DHT22;65739;51.482;5.702;2023-04-01T07:11:28;9.40;99.90
76787;DHT22;65739;51.482;5.702;2023-04-01T07:14:02;9.40;99.90
76787;DHT22;65739;51.482;5.702;2023-04-01T07:16:38;9.50;99.90
76787;DHT22;65739;51.482;5.702;2023-04-01T07:22:26;9.50;99.90
76787;DHT22;65739;51.482;5.702;2023-04-01T07:24:54;9.60;99.90
76787;DHT22;65739;51.482;5.702;2023-04-01T07:27:20;9.60;99.90
76787;DHT22;65739;51.482;5.702;2023-04-01T07:29:45;9.60;99.90
76787;DHT22;65739;51.482;5.702;2023-04-01T07:37:48;9.70;99.90
76787;DHT22;65739;51.482;5.702;2023-04-01T07:40:55;9.80;99.90
76787;DHT22;65739;51.482;5.702;2023-04-01T07:49:29;9.80;99.90
76787;DHT22;65739;51.482;5.702;2023-04-01T08:00:21;9.80;99.90
76787;DHT22;65739;51.482;5.702;2023-04-01T08:03:16;9.80;99.90
76787;DHT22;65739;51.482;5.702;2023-04-01T08:08:40;9.80;99.90
76787;DHT22;65739;51.482;5.702;2023-04-01T08:14:22;9.90;99.90
76787;DHT22;65739;51.482;5.702;2023-04-01T08:18:19;10.00;99.90
76787;DHT22;65739;51.482;5.702;2023-04-01T08:23:00;10.20;99.90
76787;DHT22;65739;51.482;5.702;2023-04-01T08:25:29;10.30;99.90
76787;DHT22;65739;51.482;5.702;2023-04-01T08:30:43;10.40;99.90
76787;DHT22;65739;51.482;5.702;2023-04-01T08:35:54;10.50;99.90
76787;DHT22;65739;51.482;5.702;2023-04-01T08:38:34;10.60;99.90
76787;DHT22;65739;51.482;5.702;2023-04-01T08:41:08;10.60;99.90
76787;DHT22;65739;51.482;5.702;2023-04-01T08:49:25;10.40;99.90
76787;DHT22;65739;51.482;5.702;2023-04-01T08:57:38;10.40;99.90
76787;DHT22;65739;51.482;5.702;2023-04-01T09:14:37;10.30;99.90
76787;DHT22;65739;51.482;5.702;2023-04-01T09:20:19;10.50;99.90
76787;DHT22;65739;51.482;5.702;2023-04-01T09:23:14;10.70;99.90
76787;DHT22;65739;51.482;5.702;2023-04-01T09:36:47;11.10;99.90
76787;DHT22;65739;51.482;5.702;2023-04-01T09:39:35;11.10;99.90
76787;DHT22;65739;51.482;5.702;2023-04-01T09:42:29;11.10;99.90
76787;DHT22;65739;51.482;5.702;2023-04-01T09:50:57;11.40;99.90
76787;DHT22;65739;51.482;5.702;2023-04-01T10:09:04;11.20;99.90
76787;DHT22;65739;51.482;5.702;2023-04-01T10:14:36;11.00;99.90
76787;DHT22;65739;51.482;5.702;2023-04-01T10:17:38;11.00;99.90
76787;DHT22;65739;51.482;5.702;2023-04-01T10:36:56;10.80;99.90
76787;DHT22;65739;51.482;5.702;2023-04-01T10:44:59;10.70;99.90
76787;DHT22;65739;51.482;5.702;2023-04-01T10:48:19;10.60;99.90
76787;DHT22;65739;51.482;5.702;2023-04-01T11:00:32;10.80;99.90
76787;DHT22;65739;51.482;5.702;2023-04-01T11:15:28;10.90;99.90
76787;DHT22;65739;51.482;5.702;2023-04-01T11:21:25;10.80;99.90
76787;DHT22;65739;51.482;5.702;2023-04-01T11:35:58;10.70;99.90
76787;DHT22;65739;51.482;5.702;2023-04-01T11:41:45;10.70;99.90
76787;DHT22;65739;51.482;5.702;2023-04-01T11:44:19;10.70;99.90
76787;DHT22;65739;51.482;5.702;2023-04-01T11:55:15;10.80;99.90
76787;DHT22;65739;51.482;5.702;2023-04-01T12:03:56;10.80;99.90
76787;DHT22;65739;51.482;5.702;2023-04-01T12:12:14;10.90;99.90
76787;DHT22;65739;51.482;5.702;2023-04-01T12:14:52;11.10;99.90
76787;DHT22;65739;51.482;5.702;2023-04-01T12:17:39;11.20;99.90
76787;DHT22;65739;51.482;5.702;2023-04-01T12:22:43;11.20;99.90
76787;DHT22;65739;51.482;5.702;2023-04-01T12:25:36;11.20;99.90
76787;DHT22;65739;51.482;5.702;2023-04-01T12:37:00;11.50;99.90
76787;DHT22;65739;51.482;5.702;2023-04-01T12:45:34;11.20;99.90
76787;DHT22;65739;51.482;5.702;2023-04-01T12:50:46;11.10;99.90
76787;DHT22;65739;51.482;5.702;2023-04-01T12:56:14;11.00;99.90
76787;DHT22;65739;51.482;5.702;2023-04-01T13:07:15;10.90;99.90
76787;DHT22;65739;51.482;5.702;2023-04-01T13:15:33;10.90;99.90
76787;DHT22;65739;51.482;5.702;2023-04-01T13:24:02;10.90;99.90
76787;DHT22;65739;51.482;5.702;2023-04-01T13:26:30;10.90;99.90
76787;DHT22;65739;51.482;5.702;2023-04-01T13:29:14;10.80;99.90
76787;DHT22;65739;51.482;5.702;2023-04-01T13:32:22;10.90;99.90
76787;DHT22;65739;51.482;5.702;2023-04-01T13:35:10;10.90;99.90
76787;DHT22;65739;51.482;5.702;2023-04-01T13:43:39;10.90;99.90
76787;DHT22;65739;51.482;5.702;2023-04-01T13:58:04;10.70;99.90
76787;DHT22;65739;51.482;5.702;2023-04-01T14:01:09;10.70;99.90
76787;DHT22;65739;51.482;5.702;2023-04-01T14:03:54;10.60;99.90
76787;DHT22;65739;51.482;5.702;2023-04-01T14:20:47;10.60;99.90
76787;DHT22;65739;51.482;5.702;2023-04-01T14:26:03;10.60;99.90
76787;DHT22;65739;51.482;5.702;2023-04-01T14:28:58;10.50;99.90
76787;DHT22;65739;51.482;5.702;2023-04-01T14:40:04;10.70;99.90
76787;DHT22;65739;51.482;5.702;2023-04-01T14:42:55;10.80;99.90
76787;DHT22;65739;51.482;5.702;2023-04-01T14:48:32;10.70;99.90
76787;DHT22;65739;51.482;5.702;2023-04-01T14:54:08;10.60;99.90
76787;DHT22;65739;51.482;5.702;2023-04-01T14:56:48;10.60;99.90
76787;DHT22;65739;51.482;5.702;2023-04-01T15:01:45;10.50;99.90
76787;DHT22;65739;51.482;5.702;2023-04-01T15:07:17;10.50;99.90
76787;DHT22;65739;51.482;5.702;2023-04-01T15:18:08;10.50;99.90
76787;DHT22;65739;51.482;5.702;2023-04-01T15:26:04;10.50;99.90
76787;DHT22;65739;51.482;5.702;2023-04-01T15:40:01;10.40;99.90
76787;DHT22;65739;51.482;5.702;2023-04-01T15:45:35;10.40;99.90
76787;DHT22;65739;51.482;5.702;2023-04-01T15:56:45;10.40;99.90
76787;DHT22;65739;51.482;5.702;2023-04-01T15:59:08;10.40;99.90
76787;DHT22;65739;51.482;5.702;2023-04-01T16:05:25;10.40;99.90
76787;DHT22;65739;51.482;5.702;2023-04-01T16:11:06;10.40;99.90
76787;DHT22;65739;51.482;5.702;2023-04-01T16:16:41;10.40;99.90
76787;DHT22;65739;51.482;5.702;2023-04-01T16:19:36;10.40;99.90
76787;DHT22;65739;51.482;5.702;2023-04-01T16:22:41;10.40;99.90
76787;DHT22;65739;51.482;5.702;2023-04-01T16:25:32;10.40;99.90
76787;DHT22;65739;51.482;5.702;2023-04-01T16:28:20;10.30;99.90
76787;DHT22;65739;51.482;5.702;2023-04-01T16:36:33;10.40;99.90
76787;DHT22;65739;51.482;5.702;2023-04-01T16:39:27;10.30;99.90
76787;DHT22;65739;51.482;5.702;2023-04-01T16:42:55;10.30;99.90
76787;DHT22;65739;51.482;5.702;2023-04-01T16:45:01;10.30;99.90
76787;DHT22;65739;51.482;5.702;2023-04-01T16:48:05;10.30;99.90
76787;DHT22;65739;51.482;5.702;2023-04-01T16:50:55;10.30;99.90
76787;DHT22;65739;51.482;5.702;2023-04-01T16:53:42;10.20;99.90
76787;DHT22;65739;51.482;5.702;2023-04-01T16:56:22;10.30;99.90
76787;DHT22;65739;51.482;5.702;2023-04-01T17:01:27;10.20;99.90
76787;DHT22;65739;51.482;5.702;2023-04-01T17:04:11;10.20;99.90
76787;DHT22;65739;51.482;5.702;2023-04-01T17:06:52;10.20;99.90
76787;DHT22;65739;51.482;5.702;2023-04-01T17:09:34;10.20;99.90
76787;DHT22;65739;51.482;5.702;2023-04-01T17:12:20;10.20;99.90
76787;DHT22;65739;51.482;5.702;2023-04-01T17:18:01;10.20;99.90
76787;DHT22;65739;51.482;5.702;2023-04-01T17:23:36;10.20;99.90
76787;DHT22;65739;51.482;5.702;2023-04-01T17:26:32;10.10;99.90
76787;DHT22;65739;51.482;5.702;2023-04-01T17:29:14;10.10;99.90
76787;DHT22;65739;51.482;5.702;2023-04-01T17:32:16;10.10;99.90
76787;DHT22;65739;51.482;5.702;2023-04-01T17:35:12;10.10;99.90
76787;DHT22;65739;51.482;5.702;2023-04-01T17:41:21;10.10;99.90
76787;DHT22;65739;51.482;5.702;2023-04-01T17:44:11;10.10;99.90
76787;DHT22;65739;51.482;5.702;2023-04-01T17:49:23;10.20;99.90
76787;DHT22;65739;51.482;5.702;2023-04-01T17:55:15;10.20;99.90
76787;DHT22;65739;51.482;5.702;2023-04-01T17:58:20;10.20;99.90
76787;DHT22;65739;51.482;5.702;2023-04-01T18:09:11;10.20;99.90
76787;DHT22;65739;51.482;5.702;2023-04-01T18:11:50;10.10;99.90
76787;DHT22;65739;51.482;5.702;2023-04-01T18:25:36;10.20;99.90
76787;DHT22;65739;51.482;5.702;2023-04-01T18:28:24;10.20;99.90
76787;DHT22;65739;51.482;5.702;2023-04-01T18:33:37;10.20;99.90
76787;DHT22;65739;51.482;5.702;2023-04-01T18:36:39;10.20;99.90
76787;DHT22;65739;51.482;5.702;2023-04-01T18:39:37;10.20;99.90
76787;DHT22;65739;51.482;5.702;2023-04-01T18:42:24;10.10;99.90
76787;DHT22;65739;51.482;5.702;2023-04-01T18:47:45;10.00;99.90
76787;DHT22;65739;51.482;5.702;2023-04-01T18:56:03;9.90;99.90
76787;DHT22;65739;51.482;5.702;2023-04-01T18:58:53;9.80;99.90
76787;DHT22;65739;51.482;5.702;2023-04-01T19:01:33;9.80;99.90
76787;DHT22;65739;51.482;5.702;2023-04-01T19:06:47;9.80;99.90
76787;DHT22;65739;51.482;5.702;2023-04-01T19:09:20;9.80;99.90
76787;DHT22;65739;51.482;5.702;2023-04-01T19:12:04;9.70;99.90
76787;DHT22;65739;51.482;5.702;2023-04-01T19:19:59;9.70;99.90
76787;DHT22;65739;51.482;5.702;2023-04-01T19:27:53;9.60;99.90
76787;DHT22;65739;51.482;5.702;2023-04-01T19:30:34;9.60;99.90
76787;DHT22;65739;51.482;5.702;2023-04-01T19:33:23;9.60;99.90
76787;DHT22;65739;51.482;5.702;2023-04-01T19:36:11;9.60;99.90
76787;DHT22;65739;51.482;5.702;2023-04-01T19:42:16;9.60;99.90
76787;DHT22;65739;51.482;5.702;2023-04-01T19:50:57;9.40;99.90
76787;DHT22;65739;51.482;5.702;2023-04-01T19:56:17;9.30;99.90
76787;DHT22;65739;51.482;5.702;2023-04-01T19:58:53;9.30;99.90
76787;DHT22;65739;51.482;5.702;2023-04-01T20:01:41;9.30;99.90
76787;DHT22;65739;51.482;5.702;2023-04-01T20:04:13;9.30;99.90
76787;DHT22;65739;51.482;5.702;2023-04-01T20:12:26;9.20;99.90
76787;DHT22;65739;51.482;5.702;2023-04-01T20:14:57;9.20;99.90
76787;DHT22;65739;51.482;5.702;2023-04-01T20:17:44;9.20;99.90
76787;DHT22;65739;51.482;5.702;2023-04-01T20:25:17;9.10;99.90
76787;DHT22;65739;51.482;5.702;2023-04-01T20:27:57;9.10;99.90
76787;DHT22;65739;51.482;5.702;2023-04-01T20:41:32;8.90;99.90
76787;DHT22;65739;51.482;5.702;2023-04-01T20:44:20;8.80;99.90
76787;DHT22;65739;51.482;5.702;2023-04-01T20:47:06;8.80;99.90
76787;DHT22;65739;51.482;5.702;2023-04-01T20:49:41;8.80;99.90
76787;DHT22;65739;51.482;5.702;2023-04-01T20:58:00;8.80;99.90
76787;DHT22;65739;51.482;5.702;2023-04-01T21:09:49;8.70;99.90
76787;DHT22;65739;51.482;5.702;2023-04-01T21:12:34;8.60;99.90
76787;DHT22;65739;51.482;5.702;2023-04-01T21:15:25;8.60;99.90
76787;DHT22;65739;51.482;5.702;2023-04-01T21:18:23;8.60;99.90
76787;DHT22;65739;51.482;5.702;2023-04-01T21:23:43;8.60;99.90
76787;DHT22;65739;51.482;5.702;2023-04-01T21:28:59;8.50;99.90
76787;DHT22;65739;51.482;5.702;2023-04-01T21:31:50;8.50;99.90
76787;DHT22;65739;51.482;5.702;2023-04-01T21:34:48;8.50;99.90
76787;DHT22;65739;51.482;5.702;2023-04-01T21:37:41;8.60;99.90
76787;DHT22;65739;51.482;5.702;2023-04-01T21:41:31;8.50;99.90
76787;DHT22;65739;51.482;5.702;2023-04-01T21:46:45;8.40;99.90
76787;DHT22;65739;51.482;5.702;2023-04-01T22:06:14;8.30;99.90
76787;DHT22;65739;51.482;5.702;2023-04-01T22:11:44;8.20;99.90
76787;DHT22;65739;51.482;5.702;2023-04-01T22:14:33;8.20;99.90
76787;DHT22;65739;51.482;5.702;2023-04-01T22:23:10;8.10;99.90
76787;DHT22;65739;51.482;5.702;2023-04-01T22:28:10;8.00;99.90
76787;DHT22;65739;51.482;5.702;2023-04-01T22:30:56;8.00;99.90
76787;DHT22;65739;51.482;5.702;2023-04-01T22:47:46;7.80;99.90
76787;DHT22;65739;51.482;5.702;2023-04-01T22:50:24;7.70;99.90
76787;DHT22;65739;51.482;5.702;2023-04-01T22:53:17;7.70;99.90
76787;DHT22;65739;51.482;5.702;2023-04-01T22:55:49;7.70;99.90
76787;DHT22;65739;51.482;5.702;2023-04-01T22:58:26;7.70;99.90
76787;DHT22;65739;51.482;5.702;2023-04-01T23:00:59;7.70;99.90
76787;DHT22;65739;51.482;5.702;2023-04-01T23:03:35;7.60;99.90
76787;DHT22;65739;51.482;5.702;2023-04-01T23:06:04;7.60;99.90
76787;DHT22;65739;51.482;5.702;2023-04-01T23:11:51;7.50;99.90
76787;DHT22;65739;51.482;5.702;2023-04-01T23:14:27;7.50;99.90
76787;DHT22;65739;51.482;5.702;2023-04-01T23:19:52;7.40;99.90
76787;DHT22;65739;51.482;5.702;2023-04-01T23:22:32;7.40;99.90
76787;DHT22;65739;51.482;5.702;2023-04-01T23:38:14;7.30;99.90
76787;DHT22;65739;51.482;5.702;2023-04-01T23:40:40;7.30;99.90
76787;DHT22;65739;51.482;5.702;2023-04-01T23:43:24;7.30;99.90
76787;DHT22;65739;51.482;5.702;2023-04-01T23:45:54;7.20;99.90
76787;DHT22;65739;51.482;5.702;2023-04-01T23:48:30;7.20;99.90
76787;DHT22;65739;51.482;5.702;2023-04-01T23:50:58;7.20;99.90
76787;DHT22;65739;51.482;5.702;2023-04-01T23:53:26;7.20;99.90
76787;DHT22;65739;51.482;5.702;2023-04-01T23:55:54;7.20;99.90
76787;DHT22;65739;51.482;5.702;2023-04-01T23:58:25;7.20;99.90
